Time;durP1;ratioP1;P1;durP2;ratioP2;P2;SDS_P1;SDS_P2;PMS_P1;PMS_P2;Temp;Humidity;BMP_temperature;BMP_pressure;BME280_temperature;BME280_humidity;BME280_pressure;Samples;Min_cycle;Max_cycle;Signal;HPM_P1;HPM_P2
2022/07/12 00:02:04;;;;;;;1.88;1.50;;;16.10;81.90;;;;;;5042501;28;20025;-79
2022/07/12 00:04:30;;;;;;;2.15;1.55;;;16.10;84.00;;;;;;5052833;28;20044;-79
2022/07/12 00:06:55;;;;;;;2.00;1.90;;;16.20;83.30;;;;;;5043895;28;20029;-78
2022/07/12 00:09:21;;;;;;;2.38;2.15;;;16.10;81.90;;;;;;5053692;28;20037;-79
2022/07/12 00:11:46;;;;;;;3.67;1.80;;;16.00;81.90;;;;;;5052542;28;20035;-79
2022/07/12 00:14:12;;;;;;;2.95;2.30;;;15.90;82.70;;;;;;5029381;28;20470;-78
2022/07/12 00:16:37;;;;;;;1.70;1.60;;;15.90;84.90;;;;;;5056882;28;20041;-78
2022/07/12 00:19:03;;;;;;;1.65;1.50;;;15.70;87.20;;;;;;5032808;28;20021;-78
2022/07/12 00:21:29;;;;;;;1.65;1.55;;;15.80;84.40;;;;;;5055685;28;20037;-78
2022/07/12 00:23:54;;;;;;;3.00;1.50;;;15.90;85.10;;;;;;5044436;28;20036;-79
2022/07/12 00:26:20;;;;;;;2.65;1.98;;;15.90;89.40;;;;;;5039681;28;20033;-78
2022/07/12 00:28:45;;;;;;;2.58;2.10;;;15.70;86.00;;;;;;5040882;28;20121;-78
2022/07/12 00:31:11;;;;;;;3.42;2.60;;;15.60;87.70;;;;;;5044059;28;20112;-78
2022/07/12 00:33:37;;;;;;;2.65;2.45;;;15.60;90.40;;;;;;5040529;28;20315;-78
2022/07/12 00:36:03;;;;;;;6.80;3.65;;;15.40;84.90;;;;;;5027751;28;20428;-78
2022/07/12 00:38:28;;;;;;;3.50;2.80;;;15.30;84.30;;;;;;5058109;28;20044;-78
2022/07/12 00:40:54;;;;;;;3.10;2.67;;;15.20;85.70;;;;;;5041550;28;20102;-78
2022/07/12 00:43:19;;;;;;;2.75;2.55;;;15.20;85.50;;;;;;5056242;28;20067;-78
2022/07/12 00:45:45;;;;;;;2.42;2.22;;;15.20;85.20;;;;;;5008640;28;20097;-78
2022/07/12 00:48:10;;;;;;;2.50;1.67;;;15.10;85.50;;;;;;5041503;28;20035;-78
2022/07/12 00:50:36;;;;;;;1.60;1.50;;;15.30;86.10;;;;;;5057230;28;20124;-78
2022/07/12 00:53:01;;;;;;;3.35;1.70;;;15.20;86.00;;;;;;5056789;28;20517;-78
2022/07/12 00:55:27;;;;;;;1.60;1.50;;;15.20;88.40;;;;;;5061480;28;20032;-78
2022/07/12 00:57:53;;;;;;;2.17;2.00;;;15.10;87.60;;;;;;5056208;28;20036;-78
2022/07/12 01:00:23;;;;;;;1.60;1.50;;;15.10;87.20;;;;;;5039785;28;20067;-78
2022/07/12 01:02:50;;;;;;;1.63;1.52;;;15.10;89.10;;;;;;5042001;28;20457;-78
2022/07/12 01:05:15;;;;;;;2.40;1.75;;;15.20;89.50;;;;;;5056408;28;20508;-78
2022/07/12 01:07:41;;;;;;;6.00;2.50;;;15.20;88.90;;;;;;5041672;28;20029;-78
2022/07/12 01:10:07;;;;;;;2.97;2.50;;;15.00;88.60;;;;;;5054755;28;20383;-78
2022/07/12 01:12:33;;;;;;;3.30;3.00;;;14.80;90.60;;;;;;5053476;28;20060;-78
2022/07/12 01:14:58;;;;;;;5.38;2.85;;;14.70;91.40;;;;;;5039302;28;20120;-78
2022/07/12 01:17:25;;;;;;;2.00;1.90;;;14.80;92.40;;;;;;5042784;28;20033;-78
2022/07/12 01:19:52;;;;;;;2.63;2.42;;;14.80;90.80;;;;;;5055725;28;20123;-78
2022/07/12 01:22:18;;;;;;;2.63;2.42;;;14.70;90.80;;;;;;5052452;28;20052;-78
2022/07/12 01:24:44;;;;;;;3.20;2.90;;;14.60;90.70;;;;;;5046030;28;20110;-78
2022/07/12 01:27:11;;;;;;;3.00;2.80;;;14.50;92.00;;;;;;5053917;28;20139;-78
2022/07/12 01:29:36;;;;;;;3.42;3.10;;;14.50;92.30;;;;;;5043335;28;20032;-78
2022/07/12 01:34:51;;;;;;;3.17;2.88;;;14.50;91.70;;;;;;5051568;28;20039;-78
2022/07/12 01:37:17;;;;;;;3.90;3.05;;;14.50;93.40;;;;;;5043692;28;20574;-78
2022/07/12 01:39:44;;;;;;;3.50;3.20;;;14.40;92.80;;;;;;5058579;28;22773;-78
2022/07/12 01:42:10;;;;;;;2.70;2.50;;;14.40;92.20;;;;;;5038494;28;20048;-78
2022/07/12 01:44:36;;;;;;;4.18;3.00;;;14.40;91.60;;;;;;5053301;28;20162;-78
2022/07/12 01:47:02;;;;;;;3.03;2.78;;;14.30;91.70;;;;;;5042688;28;20377;-78
2022/07/12 01:49:27;;;;;;;3.63;3.33;;;14.20;93.20;;;;;;5053900;28;20175;-78
2022/07/12 01:51:54;;;;;;;3.80;3.33;;;14.20;95.00;;;;;;5044099;28;20377;-78
2022/07/12 01:54:20;;;;;;;3.50;3.20;;;14.10;97.70;;;;;;5042191;28;21282;-78
2022/07/12 01:56:45;;;;;;;4.97;3.42;;;14.10;97.70;;;;;;5008896;28;20074;-77
2022/07/12 01:59:11;;;;;;;4.57;3.33;;;14.10;98.10;;;;;;5057955;28;20029;-78
2022/07/12 02:01:37;;;;;;;3.67;3.38;;;14.10;97.80;;;;;;5054839;28;20040;-78
2022/07/12 02:04:03;;;;;;;3.47;3.17;;;14.10;95.80;;;;;;5028134;28;20054;-77
2022/07/12 02:06:29;;;;;;;3.60;3.30;;;14.20;96.90;;;;;;5056540;28;20503;-78
2022/07/12 02:08:55;;;;;;;3.92;3.60;;;14.20;96.80;;;;;;5058431;28;20108;-77
2022/07/12 02:11:20;;;;;;;2.90;2.70;;;14.10;98.80;;;;;;5041017;28;20071;-78
2022/07/12 02:13:46;;;;;;;3.53;3.22;;;14.10;96.50;;;;;;5052065;28;20058;-77
2022/07/12 02:16:11;;;;;;;4.22;2.70;;;14.20;97.10;;;;;;5056776;28;20029;-77
2022/07/12 02:18:37;;;;;;;3.40;3.10;;;14.20;96.20;;;;;;5056084;28;20440;-78
2022/07/12 02:21:03;;;;;;;4.47;2.92;;;14.00;97.00;;;;;;5012119;28;20379;-77
2022/07/12 02:23:28;;;;;;;3.75;3.40;;;14.00;96.40;;;;;;5052941;28;20060;-77
2022/07/12 02:25:54;;;;;;;4.72;3.20;;;14.10;96.60;;;;;;5037592;28;20036;-77
2022/07/12 02:28:19;;;;;;;5.07;3.00;;;14.00;95.60;;;;;;5039870;28;21768;-78
2022/07/12 02:30:45;;;;;;;2.30;2.20;;;14.00;96.30;;;;;;5006904;28;20052;-77
2022/07/12 02:33:10;;;;;;;3.15;2.55;;;14.00;96.00;;;;;;5015805;28;20075;-78
2022/07/12 02:35:36;;;;;;;3.50;3.05;;;14.00;97.10;;;;;;5053858;28;20045;-77
2022/07/12 02:38:02;;;;;;;3.22;2.92;;;13.90;96.90;;;;;;5059742;28;20029;-78
2022/07/12 02:43:11;;;;;;;4.30;3.03;;;14.00;97.80;;;;;;5052861;28;20051;-77
2022/07/12 02:45:37;;;;;;;5.32;3.15;;;14.00;97.20;;;;;;5055137;28;20045;-77
2022/07/12 02:48:03;;;;;;;3.58;3.28;;;13.90;97.00;;;;;;5058448;28;20028;-77
2022/07/12 02:50:28;;;;;;;6.53;2.90;;;13.80;96.90;;;;;;5044223;28;20060;-77
2022/07/12 02:52:55;;;;;;;3.60;2.97;;;13.80;96.80;;;;;;5055051;28;20048;-77
2022/07/12 02:55:20;;;;;;;3.60;2.67;;;13.70;96.80;;;;;;5057644;28;20072;-77
2022/07/12 02:57:46;;;;;;;3.05;2.75;;;13.60;96.60;;;;;;5014400;28;20480;-78
2022/07/12 03:00:12;;;;;;;4.22;3.55;;;13.50;98.60;;;;;;5062650;28;20051;-77
2022/07/12 03:02:38;;;;;;;3.25;3.00;;;13.40;97.50;;;;;;5057012;28;20579;-77
2022/07/12 03:05:03;;;;;;;6.30;3.42;;;13.60;98.00;;;;;;5014805;28;20108;-77
2022/07/12 03:07:29;;;;;;;3.45;3.17;;;13.40;97.30;;;;;;5058432;28;20071;-77
2022/07/12 03:09:55;;;;;;;5.20;3.50;;;13.40;97.10;;;;;;5059347;28;20111;-78
2022/07/12 03:12:20;;;;;;;3.42;3.13;;;13.30;99.30;;;;;;5057507;28;20096;-78
2022/07/12 03:14:46;;;;;;;5.38;3.20;;;13.20;99.90;;;;;;5034167;28;20068;-77
2022/07/12 03:17:11;;;;;;;3.65;3.00;;;13.00;99.90;;;;;;5045886;28;20029;-77
2022/07/12 03:19:37;;;;;;;3.97;3.67;;;12.90;99.90;;;;;;5045472;28;20051;-78
2022/07/12 03:22:02;;;;;;;5.30;3.35;;;13.00;99.90;;;;;;5044023;28;20089;-77
2022/07/12 03:24:28;;;;;;;3.40;3.10;;;13.10;99.00;;;;;;5044023;28;20107;-77
2022/07/12 03:26:53;;;;;;;2.70;2.50;;;13.10;98.20;;;;;;5030667;28;20028;-77
2022/07/12 03:29:20;;;;;;;3.65;2.58;;;13.20;97.90;;;;;;5056737;28;20392;-77
2022/07/12 03:31:46;;;;;;;3.75;2.60;;;13.20;97.70;;;;;;5030710;28;20074;-77
2022/07/12 03:34:11;;;;;;;3.58;2.63;;;13.20;97.90;;;;;;5055806;28;20475;-77
2022/07/12 03:36:37;;;;;;;2.78;2.58;;;13.20;97.70;;;;;;5040004;28;20060;-78
2022/07/12 03:39:02;;;;;;;4.45;2.70;;;13.10;97.60;;;;;;5016208;28;20025;-77
2022/07/12 03:41:28;;;;;;;4.80;3.00;;;13.10;98.70;;;;;;5046518;28;20040;-77
2022/07/12 03:43:53;;;;;;;5.00;3.70;;;13.10;99.70;;;;;;5042895;28;20544;-77
2022/07/12 03:46:19;;;;;;;4.35;3.35;;;13.00;98.50;;;;;;5043824;28;20033;-77
2022/07/12 03:48:45;;;;;;;4.53;4.13;;;13.00;99.90;;;;;;5045109;28;20062;-77
2022/07/12 03:51:11;;;;;;;4.13;3.83;;;12.90;99.90;;;;;;5063713;28;20114;-77
2022/07/12 03:53:36;;;;;;;3.97;3.30;;;12.80;99.70;;;;;;5053837;28;20115;-77
2022/07/12 03:56:02;;;;;;;4.38;3.10;;;12.90;99.90;;;;;;5031997;28;20040;-77
2022/07/12 03:58:27;;;;;;;4.40;3.72;;;12.90;99.70;;;;;;5052236;28;20033;-77
2022/07/12 04:00:54;;;;;;;4.97;3.78;;;13.00;99.20;;;;;;5055820;28;20036;-77
2022/07/12 04:03:19;;;;;;;4.45;4.05;;;13.00;99.90;;;;;;5056346;28;20111;-78
2022/07/12 04:05:45;;;;;;;4.72;3.90;;;12.90;99.90;;;;;;5026146;28;20199;-77
2022/07/12 04:08:10;;;;;;;5.93;4.63;;;12.90;99.90;;;;;;5057563;28;20052;-79
2022/07/12 04:10:36;;;;;;;6.75;4.47;;;13.00;99.90;;;;;;5056323;28;20040;-77
2022/07/12 04:13:01;;;;;;;5.65;4.93;;;13.00;99.90;;;;;;5045776;28;22133;-77
2022/07/12 04:15:27;;;;;;;5.22;4.72;;;13.10;99.90;;;;;;5051840;28;20033;-77
2022/07/12 04:17:52;;;;;;;7.55;5.88;;;13.20;99.90;;;;;;5031674;28;20203;-77
2022/07/12 04:20:19;;;;;;;7.18;6.47;;;13.30;99.90;;;;;;5057263;28;20488;-77
2022/07/12 04:22:44;;;;;;;8.93;6.95;;;13.50;99.90;;;;;;5051935;28;20025;-77
2022/07/12 04:25:10;;;;;;;7.97;7.03;;;13.60;99.90;;;;;;5056296;28;20155;-77
2022/07/12 04:27:36;;;;;;;10.60;7.10;;;13.70;99.90;;;;;;5057182;28;20047;-77
2022/07/12 04:30:02;;;;;;;4.93;3.90;;;13.80;99.70;;;;;;5057015;28;20110;-77
2022/07/12 04:32:28;;;;;;;6.80;6.20;;;13.90;98.60;;;;;;5060844;28;20037;-77
2022/07/12 04:34:53;;;;;;;7.07;6.13;;;14.10;98.40;;;;;;5032395;28;20048;-77
2022/07/12 04:37:19;;;;;;;7.53;6.75;;;14.10;98.70;;;;;;5051606;28;20025;-77
2022/07/12 04:39:44;;;;;;;10.05;7.25;;;14.20;98.80;;;;;;5038318;28;20029;-77
2022/07/12 04:42:10;;;;;;;7.90;7.10;;;14.40;99.00;;;;;;5046357;28;20483;-77
2022/07/12 04:44:35;;;;;;;10.52;7.35;;;14.60;99.10;;;;;;5062241;28;20032;-77
2022/07/12 04:47:01;;;;;;;9.75;6.85;;;14.70;99.00;;;;;;5043600;28;20033;-78
2022/07/12 04:49:27;;;;;;;8.02;7.25;;;14.90;99.10;;;;;;5058069;28;20044;-77
2022/07/12 04:51:55;;;;;;;7.63;6.93;;;15.10;98.90;;;;;;5040393;28;20033;-77
2022/07/12 04:54:21;;;;;;;7.25;6.55;;;15.30;99.10;;;;;;5026158;28;20390;-78
2022/07/12 04:56:46;;;;;;;6.20;5.60;;;15.50;98.10;;;;;;5026749;28;20120;-78
2022/07/12 04:59:12;;;;;;;7.03;5.57;;;15.70;98.20;;;;;;5058844;28;20032;-77
2022/07/12 05:01:37;;;;;;;5.32;4.82;;;15.90;98.80;;;;;;5053697;28;20036;-77
2022/07/12 05:04:04;;;;;;;6.32;4.78;;;16.20;98.70;;;;;;5027130;28;20037;-77
2022/07/12 05:06:29;;;;;;;4.82;4.00;;;16.40;99.00;;;;;;5051698;28;20044;-78
2022/07/12 05:08:55;;;;;;;3.92;3.05;;;16.60;99.20;;;;;;5031129;28;20032;-78
2022/07/12 05:11:21;;;;;;;4.70;3.70;;;16.70;97.00;;;;;;5057246;28;20507;-78
2022/07/12 05:13:46;;;;;;;3.92;3.50;;;16.90;98.70;;;;;;5042998;28;20040;-77
2022/07/12 05:16:12;;;;;;;4.88;3.88;;;17.20;98.80;;;;;;5038118;28;20107;-77
2022/07/12 05:18:37;;;;;;;3.42;2.70;;;17.40;99.00;;;;;;5040391;28;20161;-77
2022/07/12 05:21:03;;;;;;;2.90;2.70;;;17.70;99.40;;;;;;5030205;28;20040;-77
2022/07/12 05:23:29;;;;;;;3.90;3.55;;;17.90;98.60;;;;;;5040798;28;20037;-77
2022/07/12 05:25:55;;;;;;;5.03;2.75;;;18.00;97.70;;;;;;5031239;28;20055;-79
2022/07/12 05:28:20;;;;;;;5.00;2.47;;;18.30;97.80;;;;;;5043132;28;20036;-79
2022/07/12 05:30:46;;;;;;;4.55;2.70;;;18.50;98.20;;;;;;5035863;28;20029;-79
2022/07/12 05:33:14;;;;;;;6.82;3.40;;;18.80;98.60;;;;;;5049929;28;20080;-79
2022/07/12 05:35:40;;;;;;;2.90;2.60;;;19.10;99.10;;;;;;5057350;28;20056;-77
2022/07/12 05:38:05;;;;;;;3.45;2.78;;;19.40;99.70;;;;;;5041065;28;20056;-77
2022/07/12 05:40:31;;;;;;;4.25;3.10;;;19.50;99.70;;;;;;5054066;28;20025;-77
2022/07/12 05:42:56;;;;;;;3.00;2.70;;;19.80;99.90;;;;;;5043456;28;20470;-77
2022/07/12 05:45:22;;;;;;;2.78;2.58;;;20.00;99.90;;;;;;5051298;28;20365;-77
2022/07/12 05:47:48;;;;;;;3.33;3.03;;;20.30;99.90;;;;;;5032825;28;20484;-77
2022/07/12 05:50:13;;;;;;;8.02;3.45;;;20.60;99.90;;;;;;5044384;28;20063;-77
2022/07/12 05:55:23;;;;;;;4.95;2.65;;;21.10;99.90;;;;;;5039112;28;20100;-78
2022/07/12 05:57:49;;;;;;;11.35;3.25;;;21.30;99.90;;;;;;5042753;28;20028;-78
2022/07/12 06:00:15;;;;;;;4.15;2.53;;;21.70;99.90;;;;;;5058237;28;20029;-78
2022/07/12 06:02:41;;;;;;;4.55;2.42;;;22.00;99.90;;;;;;5048873;28;20061;-78
2022/07/12 06:05:07;;;;;;;3.10;2.25;;;22.20;99.90;;;;;;4999532;28;20402;-78
2022/07/12 06:07:32;;;;;;;5.15;2.35;;;22.50;99.90;;;;;;5036767;28;20025;-78
2022/07/12 06:09:58;;;;;;;3.80;2.08;;;22.70;99.70;;;;;;5055066;28;20052;-78
2022/07/12 06:12:23;;;;;;;3.58;2.30;;;22.80;99.40;;;;;;5058633;28;20036;-78
2022/07/12 06:14:49;;;;;;;5.15;2.42;;;23.20;99.90;;;;;;5047053;28;20041;-78
2022/07/12 06:17:15;;;;;;;4.18;2.00;;;23.40;99.00;;;;;;5056548;28;20503;-78
2022/07/12 06:19:40;;;;;;;5.05;2.08;;;23.50;99.80;;;;;;5052343;28;20037;-78
2022/07/12 06:22:06;;;;;;;3.88;1.90;;;23.80;98.30;;;;;;5041164;28;20117;-78
2022/07/12 06:24:31;;;;;;;6.88;1.88;;;24.00;98.10;;;;;;5046900;28;20033;-78
2022/07/12 06:26:57;;;;;;;5.63;2.28;;;24.20;97.70;;;;;;5048807;28;20036;-78
2022/07/12 06:29:23;;;;;;;3.22;2.25;;;24.40;97.20;;;;;;5044430;28;20145;-79
2022/07/12 06:31:49;;;;;;;2.17;1.98;;;24.60;98.10;;;;;;5032546;28;20119;-79
2022/07/12 06:34:15;;;;;;;3.35;2.33;;;24.90;96.90;;;;;;5045008;28;20052;-79
2022/07/12 06:36:43;;;;;;;4.13;1.60;;;25.10;96.30;;;;;;5056369;28;20037;-79
2022/07/12 06:39:09;;;;;;;2.70;1.63;;;25.30;95.60;;;;;;5026134;28;20420;-79
2022/07/12 06:41:34;;;;;;;4.30;1.73;;;25.60;95.30;;;;;;5054847;28;20060;-79
2022/07/12 06:44:00;;;;;;;2.00;1.65;;;25.70;95.20;;;;;;5009685;28;20104;-79
2022/07/12 06:46:25;;;;;;;3.08;1.85;;;25.90;94.70;;;;;;5043810;28;20052;-79
2022/07/12 06:48:51;;;;;;;8.00;1.88;;;26.20;94.70;;;;;;5048466;28;20020;-79
2022/07/12 06:51:16;;;;;;;3.08;1.77;;;26.20;93.90;;;;;;5057284;28;20111;-79
2022/07/12 06:53:42;;;;;;;3.42;2.00;;;26.50;93.80;;;;;;5043050;28;20088;-79
2022/07/12 06:56:07;;;;;;;5.80;2.20;;;26.70;93.50;;;;;;5033412;28;20060;-79
2022/07/12 06:58:33;;;;;;;2.85;2.08;;;26.80;92.60;;;;;;5045743;28;20025;-80
2022/07/12 07:00:59;;;;;;;2.10;1.90;;;26.90;92.50;;;;;;5047250;28;20078;-79
2022/07/12 07:03:25;;;;;;;3.15;1.90;;;27.10;91.70;;;;;;5044840;28;20253;-80
2022/07/12 07:05:50;;;;;;;2.67;2.47;;;27.30;91.90;;;;;;5033621;28;20484;-80
2022/07/12 07:08:16;;;;;;;1.73;1.63;;;27.50;91.70;;;;;;5045209;28;20040;-80
2022/07/12 07:10:42;;;;;;;3.25;1.80;;;27.70;91.00;;;;;;5058178;28;20569;-80
2022/07/12 07:13:10;;;;;;;1.67;1.58;;;27.80;89.20;;;;;;5039186;28;20024;-80
2022/07/12 07:15:38;;;;;;;1.25;0.88;;;27.80;88.70;;;;;;5039790;28;20029;-78
2022/07/12 07:18:04;;;;;;;3.45;1.60;;;27.70;86.40;;;;;;5042654;28;20624;-78
2022/07/12 07:20:29;;;;;;;6.97;2.10;;;27.80;88.70;;;;;;5047067;28;20037;-79
2022/07/12 07:22:55;;;;;;;1.98;1.70;;;28.20;87.30;;;;;;5026859;28;20021;-78
2022/07/12 07:25:21;;;;;;;1.80;1.70;;;28.40;85.70;;;;;;5014428;28;20025;-78
2022/07/12 07:27:46;;;;;;;1.85;1.70;;;28.60;85.40;;;;;;5012823;28;20388;-79
2022/07/12 07:32:56;;;;;;;1.25;1.10;;;28.80;82.20;;;;;;5060136;28;20134;-79
2022/07/12 07:35:22;;;;;;;2.08;1.55;;;28.80;80.90;;;;;;5047715;28;20053;-79
2022/07/12 07:37:47;;;;;;;2.25;1.38;;;28.90;83.80;;;;;;5047765;28;20213;-79
2022/07/12 07:40:13;;;;;;;2.00;1.80;;;29.00;83.10;;;;;;5056630;28;20029;-79
2022/07/12 07:42:39;;;;;;;1.92;1.38;;;29.00;82.90;;;;;;5043461;28;20504;-79
2022/07/12 07:45:06;;;;;;;5.65;1.45;;;29.70;80.10;;;;;;5030511;28;20025;-80
2022/07/12 07:47:41;;;;;;;1.25;1.15;;;30.00;78.20;;;;;;5041760;28;20095;-80
2022/07/12 07:50:07;;;;;;;1.70;1.60;;;30.30;77.10;;;;;;5012470;28;20108;-80
2022/07/12 07:52:33;;;;;;;6.65;1.85;;;30.90;78.30;;;;;;5053814;28;20504;-80
2022/07/12 07:54:58;;;;;;;3.70;1.25;;;31.20;70.50;;;;;;5030741;28;20032;-81
2022/07/12 07:57:24;;;;;;;6.10;2.22;;;31.20;70.60;;;;;;5061933;28;20115;-81
2022/07/12 07:59:49;;;;;;;4.40;1.50;;;31.30;70.20;;;;;;5008121;28;20499;-81
2022/07/12 08:02:15;;;;;;;1.90;1.00;;;31.30;68.70;;;;;;5027531;28;20125;-81
2022/07/12 08:04:40;;;;;;;2.63;1.52;;;31.20;68.30;;;;;;5044174;28;20624;-81
2022/07/12 08:07:06;;;;;;;1.38;0.80;;;31.30;68.30;;;;;;5045602;28;20037;-82
2022/07/12 08:09:31;;;;;;;4.40;1.95;;;31.30;68.10;;;;;;5045389;28;20028;-82
2022/07/12 08:11:57;;;;;;;2.83;1.02;;;31.50;66.60;;;;;;5054537;28;20041;-82
2022/07/12 08:14:24;;;;;;;1.20;1.00;;;31.50;66.40;;;;;;5058511;28;20028;-81
2022/07/12 08:16:49;;;;;;;1.40;1.30;;;31.80;67.10;;;;;;5021662;28;20033;-82
2022/07/12 08:19:15;;;;;;;1.90;1.08;;;31.80;66.00;;;;;;5067467;28;20029;-82
2022/07/12 08:21:40;;;;;;;2.03;0.65;;;31.90;65.40;;;;;;5069379;28;20033;-82
2022/07/12 08:24:06;;;;;;;1.08;1.00;;;31.80;65.00;;;;;;5022892;28;20091;-82
2022/07/12 08:26:31;;;;;;;0.98;0.90;;;31.50;66.20;;;;;;5053672;28;20037;-82
2022/07/12 08:28:57;;;;;;;0.52;0.50;;;31.60;66.10;;;;;;5046231;28;20104;-83
2022/07/12 08:31:23;;;;;;;1.23;0.63;;;32.00;63.00;;;;;;5018950;28;20063;-83
2022/07/12 08:33:49;;;;;;;2.28;1.00;;;32.10;63.70;;;;;;5034066;28;20043;-83
2022/07/12 08:36:14;;;;;;;1.08;0.85;;;32.30;62.50;;;;;;5026355;28;20040;-83
2022/07/12 08:38:43;;;;;;;1.92;0.60;;;32.30;64.50;;;;;;5056985;28;20040;-83
2022/07/12 08:41:10;;;;;;;1.60;0.82;;;31.80;65.60;;;;;;5040562;28;20032;-83
2022/07/12 08:43:36;;;;;;;0.98;0.70;;;32.40;62.90;;;;;;5055326;28;20108;-83
2022/07/12 08:46:06;;;;;;;4.22;1.20;;;32.70;63.10;;;;;;5035725;28;20087;-83
2022/07/12 08:48:33;;;;;;;1.65;0.70;;;33.00;61.10;;;;;;5038617;28;20044;-83
2022/07/12 08:51:09;;;;;;;0.70;0.70;;;33.00;63.50;;;;;;5056552;28;20111;-82
2022/07/12 08:53:35;;;;;;;1.17;1.08;;;32.90;65.00;;;;;;5059847;28;20040;-82
2022/07/12 08:56:02;;;;;;;2.38;0.98;;;32.80;65.50;;;;;;5055066;28;22209;-81
2022/07/12 08:58:28;;;;;;;2.25;1.13;;;33.20;70.20;;;;;;5058514;28;20712;-81
2022/07/12 09:00:53;;;;;;;1.05;0.98;;;33.30;70.10;;;;;;5028727;28;20246;-81
2022/07/12 09:03:19;;;;;;;3.00;1.10;;;33.50;69.30;;;;;;5054267;28;20035;-80
2022/07/12 09:05:54;;;;;;;0.70;0.70;;;33.70;60.20;;;;;;5046614;28;20612;-80
2022/07/12 09:08:30;;;;;;;2.20;0.82;;;33.40;65.70;;;;;;5053277;28;20492;-80
2022/07/12 09:11:00;;;;;;;0.77;0.70;;;33.40;59.90;;;;;;5027061;28;20059;-80
2022/07/12 09:13:52;;;;;;;0.77;0.70;;;33.40;61.30;;;;;;5053440;28;20150;-80
2022/07/12 09:16:24;;;;;;;0.40;0.40;;;33.80;58.30;;;;;;5044717;28;20111;-79
2022/07/12 09:18:50;;;;;;;0.52;0.52;;;34.00;57.70;;;;;;5029102;28;20586;-80
2022/07/12 09:21:26;;;;;;;2.72;1.02;;;34.00;57.60;;;;;;5056846;28;20028;-80
2022/07/12 09:23:56;;;;;;;1.52;0.50;;;34.20;56.90;;;;;;5054706;28;20031;-79
2022/07/12 09:26:22;;;;;;;0.60;0.60;;;34.30;57.00;;;;;;5041350;28;20025;-79
2022/07/12 09:28:51;;;;;;;1.05;0.55;;;34.20;58.40;;;;;;5009788;28;20073;-79
2022/07/12 09:31:17;;;;;;;1.27;0.70;;;34.50;55.50;;;;;;5024439;28;20022;-79
2022/07/12 09:36:48;;;;;;;0.70;0.70;;;34.50;57.20;;;;;;5052733;28;20502;-79
2022/07/12 09:39:14;;;;;;;0.50;0.50;;;34.60;55.70;;;;;;5031154;28;20483;-79
2022/07/12 09:41:40;;;;;;;0.57;0.50;;;34.80;54.40;;;;;;5054266;28;20068;-78
2022/07/12 09:44:05;;;;;;;0.80;0.80;;;34.90;56.20;;;;;;5027803;28;20033;-79
2022/07/12 09:46:31;;;;;;;1.45;0.50;;;34.90;55.90;;;;;;5043677;28;20119;-78
2022/07/12 09:48:57;;;;;;;0.98;0.45;;;35.30;53.80;;;;;;4689411;28;9999894;-78
2022/07/12 09:51:23;;;;;;;0.43;0.43;;;35.50;52.90;;;;;;4698386;28;9999997;-78
2022/07/12 09:53:51;;;;;;;0.60;0.55;;;35.80;50.80;;;;;;5038123;28;20120;-78
2022/07/12 09:56:21;;;;;;;0.98;0.50;;;35.90;51.60;;;;;;5052878;28;20032;-79
2022/07/12 09:58:53;;;;;;;0.50;0.47;;;36.10;50.90;;;;;;5043626;28;20032;-78
2022/07/12 10:01:19;;;;;;;0.50;0.50;;;36.00;50.20;;;;;;5037838;28;20120;-79
2022/07/12 10:03:45;;;;;;;1.23;0.85;;;35.70;50.40;;;;;;5053003;28;20449;-79
2022/07/12 10:06:12;;;;;;;0.60;0.60;;;36.00;48.90;;;;;;5053933;28;20040;-78
2022/07/12 10:08:37;;;;;;;0.50;0.50;;;35.80;50.90;;;;;;5036641;28;20048;-79
2022/07/12 10:11:03;;;;;;;1.95;0.60;;;35.80;50.30;;;;;;5020402;28;20060;-79
2022/07/12 10:13:30;;;;;;;0.93;0.63;;;36.00;49.60;;;;;;5039046;28;20047;-78
2022/07/12 10:16:02;;;;;;;0.70;0.60;;;36.00;49.80;;;;;;5010630;28;20321;-78
2022/07/12 10:18:27;;;;;;;1.05;0.73;;;36.20;50.10;;;;;;5050344;28;20037;-78
2022/07/12 10:20:53;;;;;;;0.80;0.60;;;36.60;49.20;;;;;;5028739;28;20029;-78
2022/07/12 10:23:34;;;;;;;1.10;0.75;;;36.90;47.10;;;;;;5043995;28;20037;-78
2022/07/12 10:26:26;;;;;;;2.25;0.77;;;36.90;47.10;;;;;;5054040;28;20052;-78
2022/07/12 10:29:06;;;;;;;0.93;0.70;;;37.00;47.30;;;;;;5049062;28;20056;-78
2022/07/12 10:31:36;;;;;;;9.25;0.70;;;37.20;47.30;;;;;;5055877;28;20043;-78
2022/07/12 10:34:11;;;;;;;1.10;0.45;;;37.20;47.50;;;;;;5053284;28;20036;-78
2022/07/12 10:36:54;;;;;;;0.85;0.40;;;37.20;48.40;;;;;;5051931;28;20047;-79
2022/07/12 10:39:21;;;;;;;0.73;0.57;;;37.10;47.30;;;;;;5052374;28;20509;-79
2022/07/12 10:42:07;;;;;;;0.50;0.40;;;36.90;48.50;;;;;;5040431;28;20443;-78
2022/07/12 10:44:46;;;;;;;0.40;0.40;;;36.80;48.60;;;;;;5051977;28;20512;-78
2022/07/12 10:47:13;;;;;;;2.60;0.57;;;37.10;47.30;;;;;;5053604;28;20120;-75
2022/07/12 10:49:45;;;;;;;1.00;0.60;;;37.60;44.40;;;;;;5051004;28;20068;-75
2022/07/12 10:52:11;;;;;;;1.27;0.50;;;37.70;45.00;;;;;;5053332;28;20063;-78
2022/07/12 10:54:55;;;;;;;2.05;0.57;;;37.40;46.70;;;;;;5053955;28;20037;-79
2022/07/12 10:57:46;;;;;;;0.68;0.52;;;37.40;46.00;;;;;;5043294;28;20427;-79
2022/07/12 11:00:13;;;;;;;0.60;0.60;;;37.50;46.30;;;;;;5057575;28;20033;-78
2022/07/12 11:02:39;;;;;;;1.05;0.50;;;37.50;46.30;;;;;;5057293;28;20044;-76
2022/07/12 11:05:05;;;;;;;0.40;0.40;;;37.80;44.90;;;;;;5032214;28;20052;-78
2022/07/12 11:07:30;;;;;;;1.23;0.68;;;38.00;45.10;;;;;;5041746;28;20140;-75
2022/07/12 11:09:56;;;;;;;0.85;0.40;;;38.00;44.10;;;;;;5013538;28;20703;-78
2022/07/12 11:12:31;;;;;;;0.40;0.38;;;38.10;45.00;;;;;;5046645;28;20024;-78
2022/07/12 11:14:58;;;;;;;0.82;0.43;;;38.00;45.70;;;;;;5044084;28;20059;-79
2022/07/12 11:17:33;;;;;;;0.93;0.55;;;37.90;45.80;;;;;;5055418;28;20116;-75
2022/07/12 11:20:06;;;;;;;0.55;0.55;;;38.20;47.20;;;;;;5054135;28;20041;-76
2022/07/12 11:22:32;;;;;;;0.43;0.43;;;38.20;46.70;;;;;;5040654;28;20033;-75
2022/07/12 11:24:59;;;;;;;0.63;0.50;;;38.20;46.10;;;;;;5033820;28;20041;-75
2022/07/12 11:27:25;;;;;;;0.50;0.50;;;38.40;44.90;;;;;;5057558;28;20044;-78
2022/07/12 11:29:58;;;;;;;0.50;0.47;;;38.40;44.90;;;;;;5026025;28;20040;-76
2022/07/12 11:32:33;;;;;;;0.90;0.30;;;38.50;43.30;;;;;;5036980;28;20091;-75
2022/07/12 11:34:59;;;;;;;0.85;0.68;;;38.80;44.70;;;;;;5022670;28;20520;-76
2022/07/12 11:37:25;;;;;;;0.40;0.40;;;38.90;42.80;;;;;;5054466;28;20116;-76
2022/07/12 11:39:50;;;;;;;2.38;0.55;;;39.00;42.60;;;;;;5030470;28;20131;-77
2022/07/12 11:42:16;;;;;;;0.30;0.30;;;39.10;42.20;;;;;;5043850;28;20457;-76
2022/07/12 11:44:50;;;;;;;2.40;0.30;;;39.30;43.60;;;;;;5059652;28;20437;-76
2022/07/12 11:47:18;;;;;;;0.40;0.40;;;39.30;43.90;;;;;;5056943;28;20488;-76
2022/07/12 11:49:47;;;;;;;3.70;0.43;;;39.30;41.90;;;;;;5057631;28;20170;-76
2022/07/12 11:52:17;;;;;;;0.52;0.47;;;39.40;43.60;;;;;;5043898;28;20060;-76
2022/07/12 11:54:44;;;;;;;0.60;0.50;;;39.70;42.60;;;;;;5054353;28;20245;-76
2022/07/12 11:57:10;;;;;;;0.38;0.38;;;39.80;41.90;;;;;;5051767;28;20458;-79
2022/07/12 11:59:36;;;;;;;0.55;0.47;;;39.90;39.20;;;;;;5041309;28;20626;-77
2022/07/12 12:02:10;;;;;;;2.10;0.43;;;40.00;41.20;;;;;;5039773;28;20067;-77
2022/07/12 12:04:51;;;;;;;0.47;0.40;;;40.00;39.60;;;;;;5057311;28;20121;-77
2022/07/12 12:07:17;;;;;;;1.33;0.40;;;40.00;40.40;;;;;;5055526;28;20028;-77
2022/07/12 12:10:05;;;;;;;0.88;0.70;;;40.10;39.70;;;;;;5040192;28;20086;-75
2022/07/12 12:12:37;;;;;;;0.95;0.30;;;40.20;41.10;;;;;;5056152;28;20033;-77
2022/07/12 12:15:07;;;;;;;1.95;0.60;;;40.20;39.30;;;;;;5045912;28;20035;-76
2022/07/12 12:17:34;;;;;;;0.73;0.57;;;40.40;38.80;;;;;;5042974;28;20078;-77
2022/07/12 12:20:11;;;;;;;1.35;0.60;;;40.50;38.50;;;;;;5052025;28;20104;-77
2022/07/12 12:22:37;;;;;;;0.65;0.50;;;40.50;39.20;;;;;;5053784;28;20511;-77
2022/07/12 12:25:04;;;;;;;0.52;0.47;;;40.30;39.70;;;;;;5006858;28;20051;-77
2022/07/12 12:27:30;;;;;;;0.57;0.50;;;40.50;39.90;;;;;;5039706;28;20032;-76
2022/07/12 12:30:05;;;;;;;1.58;0.52;;;40.30;39.70;;;;;;5045656;28;20158;-77
2022/07/12 12:32:42;;;;;;;;;;;40.20;39.00;;;;;;5043547;28;20573;-77
2022/07/12 12:35:08;;;;;;;0.85;0.52;;;40.30;39.60;;;;;;5055067;28;19920;-76
2022/07/12 12:37:34;;;;;;;1.30;0.65;;;40.40;40.00;;;;;;5051554;28;20048;-77
2022/07/12 12:40:00;;;;;;;1.00;0.38;;;40.30;40.30;;;;;;5058878;28;20291;-77
2022/07/12 12:42:26;;;;;;;1.08;0.60;;;40.30;40.50;;;;;;5052169;28;20112;-77
2022/07/12 12:44:52;;;;;;;2.75;0.98;;;40.50;39.00;;;;;;5007307;28;20290;-76
2022/07/12 12:47:33;;;;;;;2.05;0.70;;;40.70;39.10;;;;;;5052547;28;20036;-76
2022/07/12 12:50:02;;;;;;;1.17;0.90;;;40.80;38.90;;;;;;5049832;28;20036;-76
2022/07/12 12:52:31;;;;;;;11.98;2.40;;;40.80;39.00;;;;;;5050072;28;20068;-76
2022/07/12 12:54:57;;;;;;;1.80;0.60;;;40.90;38.20;;;;;;5036300;28;20045;-76
2022/07/12 12:57:24;;;;;;;2.13;0.68;;;40.90;38.80;;;;;;5057494;28;20438;-76
2022/07/12 12:59:49;;;;;;;0.70;0.68;;;41.20;39.70;;;;;;5037929;28;20029;-77
2022/07/12 13:02:15;;;;;;;1.00;0.50;;;41.20;38.30;;;;;;5019433;28;20036;-76